DLH202 EDDF-EDDB
Flight info
| Callsign | DLH202 |
|---|---|
| Flight time | 0h 48m |
| Altitude | 31000 |
| Route | TOBAK2S TOBAK N858 SWALM T201 TAMEB T278 KLF KLF1R |
| Aircraft | A321/M-SDE3FGHIRWY/LB1 |
Departure
| Time | 2026-05-06 03:14 |
|---|---|
| Airport | Frankfurt Main Airport (EDDF) |
Arrival
| Time | 2026-05-06 04:02 |
|---|---|
| Airport | Berlin Brandenburg Airport (EDDB) |
| Time | Latitude | Longitude | Altitude | Speed | Heading |
|---|---|---|---|---|---|
| 2026-05-06 02:54 | 50.04893 | 8.57000 | 356 ft | 0 kts | 295° |
| 2026-05-06 03:00 | 50.04890 | 8.57012 | 364 ft | 3 kts | 295° |
| 2026-05-06 03:00 | 50.04880 | 8.57043 | 361 ft | 1 kts | 295° |
| 2026-05-06 03:00 | 50.04873 | 8.57073 | 363 ft | 3 kts | 264° |
| 2026-05-06 03:01 | 50.04882 | 8.57098 | 363 ft | 2 kts | 216° |
| 2026-05-06 03:01 | 50.04871 | 8.57089 | 362 ft | 3 kts | 207° |
| 2026-05-06 03:01 | 50.04853 | 8.57076 | 361 ft | 3 kts | 205° |
| 2026-05-06 03:01 | 50.04831 | 8.57061 | 360 ft | 3 kts | 204° |
| 2026-05-06 03:02 | 50.04813 | 8.57048 | 360 ft | 3 kts | 204° |
| 2026-05-06 03:02 | 50.04791 | 8.57033 | 357 ft | 3 kts | 204° |
| 2026-05-06 03:02 | 50.04782 | 8.57027 | 356 ft | 0 kts | 204° |
| 2026-05-06 03:04 | 50.04781 | 8.57026 | 356 ft | 1 kts | 204° |
| 2026-05-06 03:04 | 50.04771 | 8.57018 | 362 ft | 2 kts | 205° |
| 2026-05-06 03:05 | 50.04749 | 8.57002 | 357 ft | 5 kts | 206° |
| 2026-05-06 03:05 | 50.04714 | 8.56976 | 359 ft | 7 kts | 205° |
| 2026-05-06 03:05 | 50.04666 | 8.56943 | 359 ft | 8 kts | 204° |
| 2026-05-06 03:05 | 50.04606 | 8.56911 | 356 ft | 10 kts | 195° |
| 2026-05-06 03:06 | 50.04546 | 8.56888 | 361 ft | 8 kts | 194° |
| 2026-05-06 03:06 | 50.04497 | 8.56892 | 363 ft | 7 kts | 143° |
| 2026-05-06 03:06 | 50.04487 | 8.56970 | 358 ft | 10 kts | 78° |
| 2026-05-06 03:06 | 50.04513 | 8.57083 | 361 ft | 12 kts | 70° |
| 2026-05-06 03:07 | 50.04544 | 8.57215 | 361 ft | 14 kts | 69° |
| 2026-05-06 03:07 | 50.04580 | 8.57362 | 364 ft | 15 kts | 68° |
| 2026-05-06 03:07 | 50.04592 | 8.57481 | 361 ft | 8 kts | 121° |
| 2026-05-06 03:07 | 50.04561 | 8.57513 | 360 ft | 5 kts | 156° |
| 2026-05-06 03:08 | 50.04525 | 8.57542 | 365 ft | 6 kts | 151° |
| 2026-05-06 03:08 | 50.04481 | 8.57579 | 363 ft | 8 kts | 152° |
| 2026-05-06 03:08 | 50.04434 | 8.57618 | 367 ft | 6 kts | 152° |
| 2026-05-06 03:08 | 50.04387 | 8.57655 | 366 ft | 10 kts | 155° |
| 2026-05-06 03:09 | 50.04300 | 8.57706 | 362 ft | 16 kts | 160° |
| 2026-05-06 03:09 | 50.04192 | 8.57770 | 362 ft | 17 kts | 159° |
| 2026-05-06 03:09 | 50.04102 | 8.57821 | 365 ft | 11 kts | 160° |
| 2026-05-06 03:09 | 50.04026 | 8.57866 | 367 ft | 11 kts | 159° |
| 2026-05-06 03:10 | 50.03985 | 8.57890 | 372 ft | 5 kts | 156° |
| 2026-05-06 03:10 | 50.03955 | 8.57906 | 366 ft | 0 kts | 161° |
| 2026-05-06 03:11 | 50.03952 | 8.57908 | 370 ft | 2 kts | 161° |
| 2026-05-06 03:12 | 50.03932 | 8.57919 | 367 ft | 4 kts | 161° |
| 2026-05-06 03:12 | 50.03896 | 8.57938 | 366 ft | 7 kts | 161° |
| 2026-05-06 03:12 | 50.03859 | 8.57958 | 370 ft | 3 kts | 161° |
| 2026-05-06 03:12 | 50.03837 | 8.57951 | 368 ft | 4 kts | 226° |
| 2026-05-06 03:13 | 50.03832 | 8.57926 | 366 ft | 0 kts | 252° |
| 2026-05-06 03:13 | 50.03826 | 8.57902 | 365 ft | 18 kts | 250° |
| 2026-05-06 03:13 | 50.03680 | 8.57294 | 356 ft | 99 kts | 250° |
| 2026-05-06 03:13 | 50.03359 | 8.55948 | 356 ft | 162 kts | 250° |
| 2026-05-06 03:14 | 50.02947 | 8.54226 | 903 ft | 170 kts | 247° |
| 2026-05-06 03:14 | 50.02537 | 8.52520 | 1794 ft | 167 kts | 249° |
| 2026-05-06 03:14 | 50.02355 | 8.50715 | 2464 ft | 177 kts | 270° |
| 2026-05-06 03:14 | 50.02560 | 8.48705 | 2766 ft | 200 kts | 277° |
| 2026-05-06 03:15 | 50.02817 | 8.46502 | 3263 ft | 210 kts | 278° |
| 2026-05-06 03:15 | 50.03081 | 8.44254 | 3959 ft | 213 kts | 278° |
| 2026-05-06 03:15 | 50.03618 | 8.42085 | 4675 ft | 222 kts | 300° |
| 2026-05-06 03:15 | 50.04787 | 8.40322 | 5055 ft | 249 kts | 318° |
| 2026-05-06 03:16 | 50.06209 | 8.38637 | 5635 ft | 263 kts | 319° |
| 2026-05-06 03:16 | 50.07688 | 8.36904 | 6427 ft | 268 kts | 319° |
| 2026-05-06 03:16 | 50.09192 | 8.35145 | 7215 ft | 273 kts | 320° |
| 2026-05-06 03:16 | 50.10900 | 8.33761 | 7982 ft | 283 kts | 338° |
| 2026-05-06 03:17 | 50.12873 | 8.33255 | 8775 ft | 294 kts | 357° |
| 2026-05-06 03:17 | 50.14231 | 8.33478 | 9295 ft | 300 kts | 10° |
| 2026-05-06 03:17 | 50.16954 | 8.34735 | 10147 ft | 314 kts | 14° |
| 2026-05-06 03:17 | 50.18372 | 8.35410 | 10293 ft | 329 kts | 14° |
| 2026-05-06 03:18 | 50.20623 | 8.36478 | 10611 ft | 346 kts | 15° |
| 2026-05-06 03:18 | 50.22955 | 8.37587 | 11222 ft | 352 kts | 15° |
| 2026-05-06 03:18 | 50.25308 | 8.38710 | 11905 ft | 356 kts | 14° |
| 2026-05-06 03:18 | 50.27680 | 8.39945 | 12607 ft | 361 kts | 21° |
| 2026-05-06 03:19 | 50.29907 | 8.41821 | 13293 ft | 367 kts | 33° |
| 2026-05-06 03:19 | 50.32523 | 8.45236 | 14128 ft | 372 kts | 41° |
| 2026-05-06 03:19 | 50.34464 | 8.47938 | 14791 ft | 375 kts | 41° |
| 2026-05-06 03:19 | 50.35787 | 8.49776 | 15228 ft | 377 kts | 41° |
| 2026-05-06 03:20 | 50.39737 | 8.55266 | 16543 ft | 382 kts | 41° |
| 2026-05-06 03:20 | 50.41709 | 8.58012 | 17157 ft | 385 kts | 41° |
| 2026-05-06 03:20 | 50.43721 | 8.60815 | 17792 ft | 388 kts | 42° |
| 2026-05-06 03:21 | 50.45759 | 8.63625 | 18366 ft | 391 kts | 41° |
| 2026-05-06 03:21 | 50.47845 | 8.66408 | 18904 ft | 394 kts | 40° |
| 2026-05-06 03:21 | 50.49956 | 8.69175 | 19468 ft | 397 kts | 40° |
| 2026-05-06 03:21 | 50.52085 | 8.71945 | 20023 ft | 399 kts | 40° |
| 2026-05-06 03:22 | 50.54241 | 8.74745 | 20566 ft | 402 kts | 40° |
| 2026-05-06 03:22 | 50.56316 | 8.77711 | 21116 ft | 403 kts | 48° |
| 2026-05-06 03:22 | 50.58039 | 8.81174 | 21681 ft | 404 kts | 58° |
| 2026-05-06 03:22 | 50.59423 | 8.85025 | 22222 ft | 405 kts | 63° |
| 2026-05-06 03:23 | 50.60768 | 8.88930 | 22757 ft | 407 kts | 62° |
| 2026-05-06 03:23 | 50.62129 | 8.92854 | 23288 ft | 409 kts | 62° |
| 2026-05-06 03:23 | 50.63505 | 8.96795 | 23736 ft | 412 kts | 62° |
| 2026-05-06 03:23 | 50.64868 | 9.00710 | 24165 ft | 414 kts | 62° |
| 2026-05-06 03:24 | 50.66249 | 9.04689 | 24591 ft | 416 kts | 62° |
| 2026-05-06 03:24 | 50.67640 | 9.08699 | 25050 ft | 418 kts | 62° |
| 2026-05-06 03:24 | 50.69037 | 9.12745 | 25470 ft | 420 kts | 63° |
| 2026-05-06 03:24 | 50.70430 | 9.16804 | 25892 ft | 422 kts | 63° |
| 2026-05-06 03:25 | 50.71663 | 9.21018 | 26310 ft | 423 kts | 71° |
| 2026-05-06 03:25 | 50.72472 | 9.25482 | 26715 ft | 424 kts | 78° |
| 2026-05-06 03:25 | 50.73156 | 9.30020 | 27137 ft | 426 kts | 78° |
| 2026-05-06 03:25 | 50.73847 | 9.34582 | 27550 ft | 428 kts | 78° |
| 2026-05-06 03:26 | 50.74543 | 9.39167 | 27944 ft | 431 kts | 78° |
| 2026-05-06 03:26 | 50.75240 | 9.43791 | 28306 ft | 434 kts | 78° |
| 2026-05-06 03:26 | 50.75937 | 9.48441 | 28690 ft | 437 kts | 78° |
| 2026-05-06 03:26 | 50.76634 | 9.53124 | 29090 ft | 439 kts | 78° |
| 2026-05-06 03:27 | 50.77333 | 9.57837 | 29495 ft | 441 kts | 78° |
| 2026-05-06 03:27 | 50.78034 | 9.62573 | 29872 ft | 444 kts | 78° |
| 2026-05-06 03:27 | 50.78736 | 9.67333 | 30191 ft | 446 kts | 78° |
| 2026-05-06 03:27 | 50.79441 | 9.72123 | 30491 ft | 448 kts | 78° |
| 2026-05-06 03:28 | 50.80152 | 9.76936 | 30719 ft | 451 kts | 78° |
| 2026-05-06 03:28 | 50.80861 | 9.81722 | 30773 ft | 441 kts | 78° |
| 2026-05-06 03:28 | 50.81549 | 9.86371 | 30776 ft | 427 kts | 79° |
| 2026-05-06 03:28 | 50.82208 | 9.90852 | 30768 ft | 423 kts | 79° |
| 2026-05-06 03:29 | 50.83526 | 9.99924 | 30780 ft | 423 kts | 79° |
| 2026-05-06 03:29 | 50.84453 | 10.09074 | 30781 ft | 420 kts | 92° |
| 2026-05-06 03:30 | 50.84037 | 10.18247 | 30780 ft | 418 kts | 97° |
| 2026-05-06 03:30 | 50.83508 | 10.27402 | 30783 ft | 418 kts | 97° |
| 2026-05-06 03:31 | 50.82973 | 10.36550 | 30782 ft | 418 kts | 97° |
| 2026-05-06 03:31 | 50.82440 | 10.45714 | 30770 ft | 419 kts | 98° |
| 2026-05-06 03:32 | 50.81888 | 10.54886 | 30772 ft | 419 kts | 98° |
| 2026-05-06 03:32 | 50.81326 | 10.64069 | 30771 ft | 419 kts | 98° |
| 2026-05-06 03:33 | 50.81594 | 10.73290 | 30772 ft | 425 kts | 79° |
| 2026-05-06 03:33 | 50.83801 | 10.81915 | 30772 ft | 429 kts | 63° |
| 2026-05-06 03:34 | 50.86616 | 10.90217 | 30783 ft | 428 kts | 64° |
| 2026-05-06 03:34 | 50.89408 | 10.98523 | 30786 ft | 427 kts | 64° |
| 2026-05-06 03:35 | 50.92190 | 11.06834 | 30791 ft | 426 kts | 64° |
| 2026-05-06 03:35 | 50.94960 | 11.15135 | 30788 ft | 426 kts | 64° |
| 2026-05-06 03:36 | 50.97725 | 11.23454 | 30786 ft | 426 kts | 64° |
| 2026-05-06 03:36 | 51.00490 | 11.31769 | 30781 ft | 426 kts | 64° |
| 2026-05-06 03:37 | 51.03250 | 11.40093 | 30803 ft | 425 kts | 64° |
| 2026-05-06 03:37 | 51.05974 | 11.48341 | 30790 ft | 424 kts | 64° |
| 2026-05-06 03:38 | 51.08705 | 11.56647 | 30786 ft | 423 kts | 64° |
| 2026-05-06 03:38 | 51.11421 | 11.64956 | 30783 ft | 423 kts | 64° |
| 2026-05-06 03:39 | 51.14131 | 11.73261 | 30782 ft | 423 kts | 64° |
| 2026-05-06 03:39 | 51.16836 | 11.81594 | 30766 ft | 423 kts | 64° |
| 2026-05-06 03:40 | 51.19526 | 11.89926 | 30775 ft | 423 kts | 64° |
| 2026-05-06 03:40 | 51.22656 | 11.97342 | 30792 ft | 424 kts | 49° |
| 2026-05-06 03:41 | 51.26146 | 12.03118 | 30765 ft | 425 kts | 48° |
| 2026-05-06 03:41 | 51.28085 | 12.06372 | 30606 ft | 422 kts | 48° |
| 2026-05-06 03:41 | 51.30099 | 12.09787 | 30355 ft | 417 kts | 49° |
| 2026-05-06 03:42 | 51.31951 | 12.12940 | 30120 ft | 414 kts | 48° |
| 2026-05-06 03:42 | 51.33853 | 12.16173 | 29842 ft | 409 kts | 48° |
| 2026-05-06 03:42 | 51.35791 | 12.19457 | 29318 ft | 404 kts | 48° |
| 2026-05-06 03:42 | 51.37658 | 12.22617 | 28900 ft | 398 kts | 48° |
| 2026-05-06 03:43 | 51.39113 | 12.25081 | 28572 ft | 394 kts | 48° |
| 2026-05-06 03:43 | 51.40764 | 12.27876 | 28210 ft | 390 kts | 48° |
| 2026-05-06 03:43 | 51.42540 | 12.30882 | 27820 ft | 384 kts | 49° |
| 2026-05-06 03:43 | 51.44361 | 12.33979 | 27424 ft | 379 kts | 49° |
| 2026-05-06 03:44 | 51.46155 | 12.37034 | 27042 ft | 374 kts | 49° |
| 2026-05-06 03:44 | 51.47953 | 12.40006 | 26462 ft | 372 kts | 42° |
| 2026-05-06 03:44 | 51.50131 | 12.42213 | 25457 ft | 371 kts | 23° |
| 2026-05-06 03:44 | 51.52535 | 12.43702 | 24486 ft | 369 kts | 21° |
| 2026-05-06 03:45 | 51.54926 | 12.45165 | 23575 ft | 367 kts | 21° |
| 2026-05-06 03:45 | 51.57299 | 12.46621 | 22560 ft | 364 kts | 21° |
| 2026-05-06 03:45 | 51.59656 | 12.48074 | 21531 ft | 361 kts | 21° |
| 2026-05-06 03:45 | 51.61990 | 12.49521 | 20697 ft | 355 kts | 21° |
| 2026-05-06 03:46 | 51.64263 | 12.50935 | 20255 ft | 346 kts | 21° |
| 2026-05-06 03:46 | 51.66503 | 12.52229 | 19616 ft | 345 kts | 15° |
| 2026-05-06 03:46 | 51.68857 | 12.53297 | 18716 ft | 358 kts | 14° |
| 2026-05-06 03:46 | 51.71306 | 12.54328 | 17782 ft | 368 kts | 13° |
| 2026-05-06 03:47 | 51.73800 | 12.55340 | 16846 ft | 370 kts | 13° |
| 2026-05-06 03:47 | 51.76271 | 12.56337 | 16230 ft | 361 kts | 14° |
| 2026-05-06 03:47 | 51.78492 | 12.57725 | 15325 ft | 353 kts | 29° |
| 2026-05-06 03:47 | 51.80578 | 12.59748 | 14422 ft | 346 kts | 31° |
| 2026-05-06 03:48 | 51.82601 | 12.61772 | 13549 ft | 339 kts | 32° |
| 2026-05-06 03:48 | 51.84562 | 12.63762 | 12677 ft | 331 kts | 33° |
| 2026-05-06 03:48 | 51.86455 | 12.65687 | 12218 ft | 312 kts | 34° |
| 2026-05-06 03:48 | 51.88250 | 12.67508 | 11835 ft | 300 kts | 34° |
| 2026-05-06 03:49 | 51.90007 | 12.69293 | 11494 ft | 297 kts | 34° |
| 2026-05-06 03:49 | 51.91752 | 12.71067 | 11135 ft | 295 kts | 34° |
| 2026-05-06 03:49 | 51.93481 | 12.72824 | 10771 ft | 292 kts | 33° |
| 2026-05-06 03:49 | 51.95192 | 12.74565 | 10419 ft | 289 kts | 34° |
| 2026-05-06 03:50 | 51.96886 | 12.76295 | 10069 ft | 286 kts | 34° |
| 2026-05-06 03:50 | 51.98564 | 12.78008 | 9725 ft | 284 kts | 35° |
| 2026-05-06 03:50 | 52.00228 | 12.79701 | 9355 ft | 281 kts | 35° |
| 2026-05-06 03:50 | 52.01875 | 12.81378 | 9002 ft | 277 kts | 33° |
| 2026-05-06 03:51 | 52.03500 | 12.83027 | 8658 ft | 274 kts | 34° |
| 2026-05-06 03:51 | 52.05105 | 12.84654 | 8323 ft | 271 kts | 33° |
| 2026-05-06 03:51 | 52.06677 | 12.86249 | 8003 ft | 268 kts | 34° |
| 2026-05-06 03:51 | 52.08252 | 12.87852 | 7670 ft | 265 kts | 34° |
| 2026-05-06 03:52 | 52.09806 | 12.89441 | 7344 ft | 263 kts | 35° |
| 2026-05-06 03:52 | 52.11344 | 12.91020 | 7022 ft | 260 kts | 35° |
| 2026-05-06 03:52 | 52.12868 | 12.92586 | 6703 ft | 258 kts | 34° |
| 2026-05-06 03:52 | 52.14384 | 12.94139 | 6380 ft | 256 kts | 34° |
| 2026-05-06 03:53 | 52.15889 | 12.95680 | 6049 ft | 255 kts | 33° |
| 2026-05-06 03:53 | 52.17380 | 12.97214 | 5728 ft | 252 kts | 34° |
| 2026-05-06 03:53 | 52.18858 | 12.98735 | 5407 ft | 250 kts | 34° |
| 2026-05-06 03:53 | 52.20319 | 13.00240 | 5110 ft | 247 kts | 34° |
| 2026-05-06 03:54 | 52.21726 | 13.01683 | 4974 ft | 228 kts | 34° |
| 2026-05-06 03:54 | 52.23004 | 13.03028 | 4729 ft | 211 kts | 39° |
| 2026-05-06 03:54 | 52.24015 | 13.04578 | 4617 ft | 187 kts | 51° |
| 2026-05-06 03:54 | 52.24722 | 13.06202 | 4550 ft | 166 kts | 61° |
| 2026-05-06 03:55 | 52.25191 | 13.07824 | 4467 ft | 151 kts | 70° |
| 2026-05-06 03:55 | 52.25568 | 13.09400 | 4422 ft | 150 kts | 69° |
| 2026-05-06 03:55 | 52.25944 | 13.10969 | 4353 ft | 151 kts | 70° |
| 2026-05-06 03:55 | 52.26320 | 13.12561 | 4297 ft | 150 kts | 69° |
| 2026-05-06 03:56 | 52.26700 | 13.14151 | 4247 ft | 150 kts | 69° |
| 2026-05-06 03:56 | 52.27084 | 13.15747 | 4149 ft | 151 kts | 69° |
| 2026-05-06 03:56 | 52.27467 | 13.17338 | 3974 ft | 151 kts | 70° |
| 2026-05-06 03:56 | 52.27852 | 13.18936 | 3798 ft | 150 kts | 69° |
| 2026-05-06 03:57 | 52.28232 | 13.20511 | 3592 ft | 148 kts | 70° |
| 2026-05-06 03:57 | 52.28610 | 13.22078 | 3401 ft | 149 kts | 70° |
| 2026-05-06 03:57 | 52.28988 | 13.23648 | 3201 ft | 149 kts | 70° |
| 2026-05-06 03:57 | 52.29365 | 13.25214 | 3003 ft | 147 kts | 70° |
| 2026-05-06 03:58 | 52.29738 | 13.26766 | 2814 ft | 146 kts | 70° |
| 2026-05-06 03:58 | 52.30110 | 13.28315 | 2605 ft | 145 kts | 70° |
| 2026-05-06 03:58 | 52.30475 | 13.29833 | 2436 ft | 143 kts | 70° |
| 2026-05-06 03:58 | 52.30839 | 13.31350 | 2232 ft | 142 kts | 70° |
| 2026-05-06 03:59 | 52.31194 | 13.32833 | 2043 ft | 141 kts | 69° |
| 2026-05-06 03:59 | 52.31549 | 13.34312 | 1849 ft | 138 kts | 69° |
| 2026-05-06 03:59 | 52.31897 | 13.35764 | 1669 ft | 136 kts | 69° |
| 2026-05-06 03:59 | 52.32243 | 13.37213 | 1479 ft | 138 kts | 68° |
| 2026-05-06 04:00 | 52.32594 | 13.38680 | 1300 ft | 138 kts | 68° |
| 2026-05-06 04:00 | 52.32943 | 13.40141 | 1084 ft | 138 kts | 68° |
| 2026-05-06 04:00 | 52.33298 | 13.41624 | 887 ft | 144 kts | 66° |
| 2026-05-06 04:00 | 52.33652 | 13.43109 | 683 ft | 139 kts | 67° |
| 2026-05-06 04:01 | 52.34001 | 13.44576 | 507 ft | 138 kts | 66° |
| 2026-05-06 04:01 | 52.34356 | 13.46056 | 317 ft | 139 kts | 66° |
| 2026-05-06 04:01 | 52.34702 | 13.47499 | 156 ft | 130 kts | 68° |
| 2026-05-06 04:01 | 52.34974 | 13.48654 | 154 ft | 84 kts | 69° |
| 2026-05-06 04:02 | 52.35095 | 13.49167 | 154 ft | 52 kts | 69° |
| 2026-05-06 04:02 | 52.35191 | 13.49567 | 154 ft | 43 kts | 69° |
| 2026-05-06 04:02 | 52.35286 | 13.49859 | 154 ft | 24 kts | 50° |
| 2026-05-06 04:03 | 52.35393 | 13.50019 | 155 ft | 16 kts | 39° |
| 2026-05-06 04:03 | 52.35455 | 13.50099 | 155 ft | 9 kts | 38° |
| 2026-05-06 04:03 | 52.35499 | 13.50156 | 155 ft | 7 kts | 38° |
| 2026-05-06 04:03 | 52.35535 | 13.50204 | 155 ft | 6 kts | 38° |
| 2026-05-06 04:04 | 52.35573 | 13.50252 | 155 ft | 8 kts | 38° |
| 2026-05-06 04:04 | 52.35609 | 13.50341 | 155 ft | 11 kts | 67° |
| 2026-05-06 04:04 | 52.35640 | 13.50467 | 155 ft | 12 kts | 69° |
| 2026-05-06 04:04 | 52.35667 | 13.50584 | 155 ft | 10 kts | 69° |
| 2026-05-06 04:05 | 52.35699 | 13.50681 | 155 ft | 9 kts | 41° |
| 2026-05-06 04:05 | 52.35751 | 13.50684 | 155 ft | 7 kts | 337° |
| 2026-05-06 04:05 | 52.35794 | 13.50653 | 155 ft | 6 kts | 336° |
| 2026-05-06 04:05 | 52.35848 | 13.50636 | 155 ft | 9 kts | 8° |
| 2026-05-06 04:06 | 52.35889 | 13.50695 | 155 ft | 7 kts | 46° |
| 2026-05-06 04:06 | 52.35938 | 13.50718 | 155 ft | 9 kts | 355° |
| 2026-05-06 04:06 | 52.36000 | 13.50680 | 155 ft | 9 kts | 339° |
| 2026-05-06 04:06 | 52.36056 | 13.50646 | 155 ft | 9 kts | 339° |
| 2026-05-06 04:07 | 52.36131 | 13.50598 | 155 ft | 14 kts | 338° |
| 2026-05-06 04:07 | 52.36223 | 13.50539 | 155 ft | 13 kts | 339° |
| 2026-05-06 04:07 | 52.36290 | 13.50496 | 155 ft | 9 kts | 339° |
| 2026-05-06 04:07 | 52.36344 | 13.50462 | 155 ft | 8 kts | 339° |
| 2026-05-06 04:08 | 52.36389 | 13.50433 | 155 ft | 6 kts | 339° |
| 2026-05-06 04:08 | 52.36427 | 13.50412 | 155 ft | 5 kts | 355° |
| 2026-05-06 04:08 | 52.36442 | 13.50436 | 155 ft | 2 kts | 64° |
| 2026-05-06 04:08 | 52.36453 | 13.50480 | 155 ft | 5 kts | 70° |
| 2026-05-06 04:09 | 52.36464 | 13.50524 | 155 ft | 2 kts | 69° |
| 2026-05-06 04:09 | 52.36467 | 13.50536 | 155 ft | 0 kts | 69° |